Time;durP1;ratioP1;P1;durP2;ratioP2;P2;SDS_P1;SDS_P2;PMS_P1;PMS_P2;Temp;Humidity;BMP_temperature;BMP_pressure;BME280_temperature;BME280_humidity;BME280_pressure;Samples;Min_cycle;Max_cycle;Signal;HPM_P1;HPM_P2
2022/07/14 00:00:12;;;;;;;0.85;0.50;;;;;;;20.22;43.24;99976.44;5017335;28;20034;-82
2022/07/14 00:02:38;;;;;;;0.75;0.52;;;;;;;20.33;43.16;99979.44;5000275;28;20501;-82
2022/07/14 00:05:03;;;;;;;2.38;0.75;;;;;;;20.00;43.73;99949.84;5017372;28;20551;-82
2022/07/14 00:07:29;;;;;;;0.55;0.55;;;;;;;20.15;43.20;99977.69;5017532;28;20068;-82
2022/07/14 00:09:54;;;;;;;6.68;0.77;;;;;;;20.25;43.28;99983.44;5017413;28;20439;-83
2022/07/14 00:12:20;;;;;;;0.63;0.60;;;;;;;20.22;43.45;99987.16;5017660;28;20029;-85
2022/07/14 00:14:46;;;;;;;0.55;0.50;;;;;;;20.35;43.12;99990.06;5017374;28;20041;-82
2022/07/14 00:17:11;;;;;;;1.58;0.70;;;;;;;20.31;42.89;99980.44;5017631;28;20033;-82
2022/07/14 00:19:36;;;;;;;1.05;0.60;;;;;;;20.42;42.87;99972.75;5017256;28;20555;-82
2022/07/14 00:22:02;;;;;;;1.25;1.15;;;;;;;20.44;42.64;99984.25;5017601;28;20056;-82
2022/07/14 00:24:27;;;;;;;0.60;0.60;;;;;;;20.32;42.75;99964.28;5017245;28;20030;-82
2022/07/14 00:26:53;;;;;;;1.13;0.73;;;;;;;20.43;43.01;99978.97;5017669;28;20033;-83
2022/07/14 00:29:19;;;;;;;0.50;0.50;;;;;;;20.31;43.42;99985.81;5017623;28;20025;-83
2022/07/14 00:31:44;;;;;;;0.60;0.60;;;;;;;20.30;43.34;99989.44;5017366;28;20439;-81
2022/07/14 00:34:09;;;;;;;1.42;0.50;;;;;;;20.17;43.68;99992.75;5016929;28;20045;-82
2022/07/14 00:36:35;;;;;;;12.27;2.38;;;;;;;20.18;43.25;99980.22;5017503;28;20030;-82
2022/07/14 00:39:01;;;;;;;0.50;0.50;;;;;;;20.28;43.44;99973.47;5017195;28;20566;-83
2022/07/14 00:41:26;;;;;;;0.68;0.68;;;;;;;20.43;43.13;99966.44;5017507;28;20056;-81
2022/07/14 00:43:52;;;;;;;0.60;0.60;;;;;;;20.48;43.12;99975.13;5017085;28;20492;-82
2022/07/14 00:46:17;;;;;;;0.85;0.85;;;;;;;20.29;43.52;99977.84;5016868;28;20088;-82
2022/07/14 00:48:43;;;;;;;1.33;0.80;;;;;;;20.49;42.80;99968.78;5017367;28;20463;-83
2022/07/14 00:51:08;;;;;;;1.00;0.93;;;;;;;20.54;42.98;99984.63;5017228;28;20041;-83
2022/07/14 00:53:34;;;;;;;0.60;0.60;;;;;;;20.34;43.25;99993.69;5017224;28;20088;-83
2022/07/14 00:55:59;;;;;;;2.63;1.20;;;;;;;20.14;44.03;99978.63;5013888;28;20192;-83
2022/07/14 00:58:25;;;;;;;0.88;0.63;;;;;;;20.11;44.19;99971.63;5013796;28;20542;-83
2022/07/14 01:00:50;;;;;;;0.60;0.60;;;;;;;20.17;44.28;99973.09;5014425;28;20115;-83
2022/07/14 01:03:16;;;;;;;0.50;0.43;;;;;;;20.00;44.54;99982.88;5014313;28;20037;-83
2022/07/14 01:05:42;;;;;;;0.73;0.70;;;;;;;20.06;44.64;99968.28;5014216;28;20029;-82
2022/07/14 01:08:07;;;;;;;0.57;0.57;;;;;;;20.42;44.08;99999.53;5014049;28;20030;-82
2022/07/14 01:10:33;;;;;;;1.08;0.68;;;;;;;20.31;44.25;99989.38;5014003;28;20037;-83
2022/07/14 01:13:01;;;;;;;1.05;0.90;;;;;;;20.37;43.90;99989.06;5013802;28;20484;-82
2022/07/14 01:15:28;;;;;;;0.77;0.40;;;;;;;20.19;43.76;99968.56;5013859;28;20042;-83
2022/07/14 01:17:54;;;;;;;0.55;0.55;;;;;;;20.18;44.00;99988.25;5013794;28;20168;-89
2022/07/14 01:20:19;;;;;;;1.77;0.82;;;;;;;20.19;44.11;99990.84;4996407;28;20420;-83
2022/07/14 01:22:48;;;;;;;0.60;0.60;;;;;;;20.04;44.10;99987.09;5014222;28;20030;-82
2022/07/14 01:25:16;;;;;;;2.05;1.85;;;;;;;20.09;44.77;99975.31;5014063;28;20100;-82
2022/07/14 01:27:44;;;;;;;0.70;0.70;;;;;;;20.17;44.72;99971.31;5013854;28;20092;-82
2022/07/14 01:30:10;;;;;;;0.85;0.70;;;;;;;20.12;44.42;99976.03;5013537;28;20036;-83
2022/07/14 01:32:37;;;;;;;0.63;0.63;;;;;;;20.10;44.28;99979.75;5013323;28;20137;-83
2022/07/14 01:35:04;;;;;;;0.40;0.40;;;;;;;20.44;43.26;99994.97;5013248;28;20026;-83
2022/07/14 01:37:29;;;;;;;2.90;0.95;;;;;;;20.45;43.20;99983.31;5013198;28;20030;-83
2022/07/14 01:39:55;;;;;;;1.10;0.80;;;;;;;20.49;43.13;99982.19;5013508;28;20121;-89
2022/07/14 01:42:20;;;;;;;0.85;0.75;;;;;;;20.64;45.88;99993.94;5014019;28;20026;-84
2022/07/14 01:44:46;;;;;;;0.57;0.52;;;;;;;20.01;46.37;99971.19;5013459;28;20555;-83
2022/07/14 01:47:13;;;;;;;1.65;0.90;;;;;;;19.87;47.65;99994.25;5013586;28;20493;-83
2022/07/14 01:49:40;;;;;;;2.25;1.15;;;;;;;19.58;48.20;100004.50;5013579;28;20040;-83
2022/07/14 01:52:05;;;;;;;1.58;0.77;;;;;;;19.51;48.46;99982.53;5013178;28;20041;-83
2022/07/14 01:54:31;;;;;;;0.65;0.65;;;;;;;19.09;49.03;99975.56;5013445;28;20080;-83
2022/07/14 01:56:56;;;;;;;0.70;0.70;;;;;;;19.16;49.95;99985.03;5013163;28;20113;-87
2022/07/14 01:59:22;;;;;;;1.10;0.90;;;;;;;19.20;50.28;99977.75;5013000;28;20054;-83
2022/07/14 02:01:47;;;;;;;0.95;0.95;;;;;;;19.14;50.93;99997.63;5013044;28;20022;-83
2022/07/14 02:04:18;;;;;;;1.15;0.82;;;;;;;18.94;51.09;99988.69;5012604;28;20041;-83
2022/07/14 02:06:54;;;;;;;1.50;1.20;;;;;;;19.16;50.50;100000.22;5010993;28;20058;-82
2022/07/14 02:09:20;;;;;;;1.35;0.90;;;;;;;19.04;50.68;99989.13;5012961;28;20026;-83
2022/07/14 02:14:32;;;;;;;0.88;0.57;;;;;;;19.04;50.84;100004.31;5012856;28;20041;-83
2022/07/14 02:16:58;;;;;;;1.30;0.88;;;;;;;18.96;51.32;99970.78;5012120;28;20128;-82
2022/07/14 02:19:24;;;;;;;4.13;1.67;;;;;;;19.17;51.45;100004.63;5012433;28;20193;-82
2022/07/14 02:21:51;;;;;;;1.00;0.90;;;;;;;19.20;51.32;99991.09;5011992;28;20488;-83
2022/07/14 02:24:17;;;;;;;2.53;1.70;;;;;;;19.18;51.59;99993.00;5012198;28;20022;-82
2022/07/14 02:26:44;;;;;;;0.80;0.70;;;;;;;19.25;52.63;100011.38;5012622;28;20124;-82
2022/07/14 02:29:10;;;;;;;1.65;0.70;;;;;;;19.12;52.75;99997.69;5012377;28;20029;-83
2022/07/14 02:31:35;;;;;;;0.85;0.70;;;;;;;19.04;52.51;99996.28;5012322;28;20042;-82
2022/07/14 02:34:01;;;;;;;1.00;0.90;;;;;;;18.78;51.81;100012.53;5011596;28;20048;-83
2022/07/14 02:36:28;;;;;;;0.57;0.57;;;;;;;18.64;53.18;100022.94;5011612;28;20092;-82
2022/07/14 02:38:54;;;;;;;0.73;0.68;;;;;;;18.55;53.64;100013.53;5012108;28;20049;-82
2022/07/14 02:41:19;;;;;;;1.05;0.80;;;;;;;18.54;53.56;100003.78;5012364;28;20463;-81
2022/07/14 02:43:45;;;;;;;0.60;0.60;;;;;;;18.46;53.48;99999.69;5012026;28;20074;-82
2022/07/14 02:46:10;;;;;;;1.95;1.35;;;;;;;18.60;52.75;100018.69;5002008;28;20030;-82
2022/07/14 02:48:36;;;;;;;0.75;0.75;;;;;;;18.50;52.63;100015.50;4992388;28;20027;-82
2022/07/14 02:51:06;;;;;;;1.08;0.82;;;;;;;18.51;52.70;100011.06;4992108;28;20493;-82
2022/07/14 02:53:34;;;;;;;0.50;0.50;;;;;;;18.57;52.38;100021.47;4992484;28;20034;-83
2022/07/14 02:56:00;;;;;;;1.63;0.70;;;;;;;18.55;52.63;100023.34;4992605;28;20022;-82
2022/07/14 02:58:26;;;;;;;1.05;0.93;;;;;;;18.27;52.42;100013.81;5009395;28;20097;-87
2022/07/14 03:00:52;;;;;;;1.08;0.80;;;;;;;18.32;52.53;100006.50;5011472;28;20427;-84
2022/07/14 03:03:17;;;;;;;2.60;0.57;;;;;;;18.56;52.07;100009.91;5011384;28;20026;-84
2022/07/14 03:05:43;;;;;;;1.17;0.85;;;;;;;18.39;53.26;100025.78;5011364;28;20117;-83
2022/07/14 03:08:10;;;;;;;3.60;1.40;;;;;;;18.50;52.73;100028.88;5011514;28;20053;-83
2022/07/14 03:10:35;;;;;;;1.17;1.08;;;;;;;18.55;52.45;100040.25;5011478;28;20124;-84
2022/07/14 03:13:01;;;;;;;1.55;1.15;;;;;;;18.54;52.52;100038.50;5011081;28;20488;-84
2022/07/14 03:15:27;;;;;;;0.52;0.52;;;;;;;18.53;52.31;100027.88;5012037;28;20083;-86
2022/07/14 03:17:52;;;;;;;1.17;1.08;;;;;;;18.67;51.85;100041.50;5009704;28;20125;-87
2022/07/14 03:20:18;;;;;;;1.40;0.90;;;;;;;18.65;52.17;100042.53;5010524;28;20034;-86
2022/07/14 03:22:45;;;;;;;1.02;0.75;;;;;;;18.65;52.83;100031.84;5011627;28;20381;-86
2022/07/14 03:25:11;;;;;;;1.10;0.73;;;;;;;18.74;52.50;100031.44;5011144;28;20037;-86
2022/07/14 03:27:38;;;;;;;2.00;0.77;;;;;;;18.57;52.75;100029.50;5011128;28;20034;-85
2022/07/14 03:30:05;;;;;;;1.40;1.23;;;;;;;18.61;52.79;100031.97;5010947;28;20037;-89
2022/07/14 03:32:30;;;;;;;0.70;0.70;;;;;;;18.56;53.48;100036.63;4991823;28;20085;-87
2022/07/14 03:34:57;;;;;;;0.85;0.85;;;;;;;18.63;53.50;100028.34;4993732;28;20030;-87
2022/07/14 03:37:23;;;;;;;1.02;0.70;;;;;;;18.66;53.61;100025.53;5011200;28;20714;-87
2022/07/14 03:39:48;;;;;;;1.50;0.98;;;;;;;18.79;54.15;100032.09;5010157;28;20037;-89
2022/07/14 03:42:14;;;;;;;0.73;0.70;;;;;;;18.95;54.16;100048.34;5011256;28;20495;-87
2022/07/14 03:44:39;;;;;;;0.52;0.52;;;;;;;19.03;53.26;100040.88;5011089;28;20092;-86
2022/07/14 03:47:05;;;;;;;1.25;0.90;;;;;;;18.97;52.50;100022.44;4992513;28;20038;-87
2022/07/14 03:49:30;;;;;;;1.95;1.08;;;;;;;19.18;52.13;100027.75;5010868;28;20034;-87
2022/07/14 03:51:56;;;;;;;0.80;0.70;;;;;;;19.36;52.19;100040.28;4992905;28;20045;-83
2022/07/14 03:54:21;;;;;;;0.95;0.88;;;;;;;19.27;52.51;100032.69;5010327;28;20061;-88
2022/07/14 03:56:47;;;;;;;2.20;1.27;;;;;;;19.33;52.39;100038.63;5010626;28;20030;-89
2022/07/14 03:59:12;;;;;;;1.25;0.93;;;;;;;19.48;52.67;100034.38;5010425;28;20030;-85
2022/07/14 04:01:38;;;;;;;0.55;0.55;;;;;;;19.56;52.17;100022.47;5010652;28;20025;-88
2022/07/14 04:04:04;;;;;;;1.35;0.70;;;;;;;19.75;51.45;100025.97;5010362;28;20038;-88
2022/07/14 04:06:29;;;;;;;0.98;0.80;;;;;;;20.04;50.88;100053.19;5010875;28;20412;-84
2022/07/14 04:08:55;;;;;;;0.68;0.68;;;;;;;20.05;51.59;100038.88;5010427;28;20057;-85
2022/07/14 04:11:20;;;;;;;0.73;0.60;;;;;;;20.28;51.16;100053.81;5010210;28;20062;-86
2022/07/14 04:13:46;;;;;;;0.60;0.60;;;;;;;20.51;50.62;100043.72;5009505;28;20468;-85
2022/07/14 04:16:11;;;;;;;1.67;0.80;;;;;;;20.59;50.59;100054.94;5010272;28;20432;-85
2022/07/14 04:18:37;;;;;;;1.73;1.63;;;;;;;20.81;52.02;100052.06;5009450;28;20072;-85
2022/07/14 04:21:02;;;;;;;0.73;0.70;;;;;;;21.08;52.41;100059.59;5010628;28;20408;-85
2022/07/14 04:23:28;;;;;;;1.67;0.80;;;;;;;21.20;51.61;100047.34;5010294;28;20030;-85
2022/07/14 04:25:53;;;;;;;0.80;0.73;;;;;;;21.21;52.07;100051.75;5010784;28;20029;-84
2022/07/14 04:28:19;;;;;;;1.05;0.77;;;;;;;21.36;50.56;100039.34;5010595;28;20037;-84
2022/07/14 04:30:44;;;;;;;1.17;0.95;;;;;;;21.53;49.88;100022.34;5013063;28;20030;-86
2022/07/14 04:33:10;;;;;;;1.08;0.98;;;;;;;21.66;50.99;100034.16;5014001;28;20053;-84
2022/07/14 04:35:36;;;;;;;1.67;1.25;;;;;;;21.94;50.30;100040.66;5013551;28;20049;-85
2022/07/14 04:38:02;;;;;;;1.13;0.73;;;;;;;22.00;50.79;100033.09;5013119;28;20018;-87
2022/07/14 04:40:27;;;;;;;2.15;1.08;;;;;;;22.07;50.81;100022.84;5013728;28;20026;-84
2022/07/14 04:42:53;;;;;;;1.55;1.00;;;;;;;22.23;49.18;100036.28;5013508;28;20527;-86
2022/07/14 04:45:20;;;;;;;0.82;0.65;;;;;;;22.38;50.04;100028.31;5013262;28;20052;-88
2022/07/14 04:47:45;;;;;;;1.35;1.02;;;;;;;22.31;47.76;100049.31;5012961;28;20503;-86
2022/07/14 04:52:55;;;;;;;1.08;0.90;;;;;;;22.48;46.88;100038.44;5011689;28;20099;-85
2022/07/14 04:55:20;;;;;;;1.13;0.75;;;;;;;22.31;47.03;100019.75;5013158;28;20470;-84
2022/07/14 04:57:46;;;;;;;1.88;1.77;;;;;;;22.69;46.05;100047.03;5013359;28;20037;-83
2022/07/14 05:00:12;;;;;;;1.10;0.70;;;;;;;23.23;45.75;100051.88;4995353;28;20136;-86
2022/07/14 05:02:38;;;;;;;5.07;1.35;;;;;;;23.44;43.70;100023.72;5012818;28;20499;-86
2022/07/14 05:05:04;;;;;;;12.88;3.53;;;;;;;23.60;43.25;100048.69;5013932;28;20062;-85
2022/07/14 05:07:29;;;;;;;2.13;0.73;;;;;;;23.66;42.05;100036.66;5014241;28;20065;-85
2022/07/14 05:09:55;;;;;;;1.00;0.75;;;;;;;23.84;42.01;100066.94;5013371;28;20412;-84
2022/07/14 05:12:21;;;;;;;1.48;1.23;;;;;;;24.04;41.22;100066.53;5013393;28;20117;-86
2022/07/14 05:14:46;;;;;;;1.20;1.10;;;;;;;24.10;39.97;100060.75;5013263;28;20034;-84
2022/07/14 05:17:13;;;;;;;2.08;1.05;;;;;;;24.64;40.30;100073.38;5013635;28;20029;-85
2022/07/14 05:19:39;;;;;;;0.77;0.60;;;;;;;24.58;41.36;100083.72;5013545;28;20037;-85
2022/07/14 05:22:04;;;;;;;1.13;0.75;;;;;;;24.83;40.28;100072.13;5013599;28;20026;-87
2022/07/14 05:24:30;;;;;;;1.38;0.95;;;;;;;25.13;39.75;100079.94;5013930;28;20484;-85
2022/07/14 05:26:58;;;;;;;1.45;0.98;;;;;;;25.20;39.96;100086.63;5013716;28;20026;-85
2022/07/14 05:29:23;;;;;;;1.58;0.60;;;;;;;25.25;40.22;100074.63;5013311;28;20030;-84
2022/07/14 05:31:48;;;;;;;2.05;0.90;;;;;;;25.42;41.49;100079.72;5012268;28;20480;-85
2022/07/14 05:34:14;;;;;;;1.95;0.85;;;;;;;25.36;40.56;100055.88;5013172;28;20049;-85
2022/07/14 05:36:40;;;;;;;1.02;0.85;;;;;;;25.55;39.05;100086.00;5013438;28;20084;-85
2022/07/14 05:39:05;;;;;;;2.15;1.00;;;;;;;25.76;39.79;100079.16;5012789;28;20029;-86
2022/07/14 05:41:30;;;;;;;0.75;0.75;;;;;;;25.72;36.96;100073.13;5013349;28;20040;-85
2022/07/14 05:43:56;;;;;;;3.28;1.67;;;;;;;25.83;36.41;100062.41;5013083;28;20547;-84
2022/07/14 05:46:21;;;;;;;0.60;0.60;;;;;;;25.85;34.62;100087.44;5012988;28;20542;-84
2022/07/14 05:48:47;;;;;;;0.75;0.75;;;;;;;25.62;35.89;100075.59;5012818;28;20524;-84
2022/07/14 05:51:15;;;;;;;0.50;0.50;;;;;;;25.84;34.93;100084.88;5012888;28;20045;-84
2022/07/14 05:53:42;;;;;;;0.45;0.45;;;;;;;25.99;35.75;100083.78;5012859;28;20412;-85
2022/07/14 05:56:10;;;;;;;1.00;0.88;;;;;;;26.21;35.09;100088.47;5011572;28;20408;-83
2022/07/14 05:58:36;;;;;;;1.08;0.80;;;;;;;25.99;33.66;100077.53;5011380;28;20038;-85
2022/07/14 06:01:03;;;;;;;0.68;0.47;;;;;;;26.14;34.17;100072.81;5013116;28;20115;-85
2022/07/14 06:03:30;;;;;;;0.52;0.52;;;;;;;26.46;34.41;100094.72;5012507;28;20081;-85
2022/07/14 06:05:59;;;;;;;0.60;0.50;;;;;;;26.51;34.42;100079.03;5012958;28;20036;-86
2022/07/14 06:08:24;;;;;;;1.63;0.93;;;;;;;26.00;33.52;100068.44;5013072;28;20034;-86
2022/07/14 06:10:50;;;;;;;1.30;1.00;;;;;;;26.30;34.80;100053.63;4994919;28;20042;-85
2022/07/14 06:13:15;;;;;;;6.97;0.57;;;;;;;26.25;33.29;100079.16;5012082;28;20034;-84
2022/07/14 06:15:41;;;;;;;0.45;0.40;;;;;;;25.99;33.54;100083.78;5012580;28;20029;-84
2022/07/14 06:18:09;;;;;;;0.95;0.60;;;;;;;26.24;35.20;100085.56;4994591;28;20508;-82
2022/07/14 06:20:35;;;;;;;1.17;0.70;;;;;;;26.46;33.27;100070.38;5012003;28;20030;-84
2022/07/14 06:23:00;;;;;;;1.15;0.73;;;;;;;26.51;34.28;100075.44;4993822;28;20041;-85
2022/07/14 06:25:26;;;;;;;1.67;0.73;;;;;;;26.45;33.90;100057.88;5012002;28;20466;-84
2022/07/14 06:27:51;;;;;;;0.30;0.30;;;;;;;26.48;33.12;100045.94;5011708;28;20045;-83
2022/07/14 06:30:17;;;;;;;0.65;0.55;;;;;;;26.35;33.12;100063.09;5012253;28;20030;-87
2022/07/14 06:32:42;;;;;;;0.93;0.73;;;;;;;26.47;32.78;100046.94;5010876;28;20112;-86
2022/07/14 06:35:09;;;;;;;0.80;0.40;;;;;;;26.81;33.67;100069.59;5011526;28;20049;-86
2022/07/14 06:37:35;;;;;;;0.60;0.47;;;;;;;26.83;34.15;100072.16;4994140;28;20115;-85
2022/07/14 06:40:09;;;;;;;0.32;0.32;;;;;;;27.18;31.64;100050.47;5012334;28;20472;-85
2022/07/14 06:42:35;;;;;;;1.45;0.57;;;;;;;27.11;31.97;100060.03;5011983;28;20112;-86
2022/07/14 06:45:01;;;;;;;2.05;0.80;;;;;;;27.25;32.45;100040.88;4994431;28;20133;-85
2022/07/14 06:47:30;;;;;;;0.85;0.60;;;;;;;27.35;32.17;100051.88;5011670;28;20495;-86
2022/07/14 06:49:57;;;;;;;0.90;0.40;;;;;;;27.41;32.55;100047.81;4994443;28;20507;-85
2022/07/14 06:52:23;;;;;;;2.08;0.60;;;;;;;27.46;31.96;100051.00;4993518;28;20502;-84
2022/07/14 06:54:50;;;;;;;0.30;0.30;;;;;;;27.65;31.21;100036.84;4993200;28;20038;-85
2022/07/14 06:57:15;;;;;;;0.98;0.60;;;;;;;27.62;32.26;100027.13;4994291;28;20496;-85
2022/07/14 06:59:41;;;;;;;1.42;0.80;;;;;;;27.80;30.54;100048.28;5011854;28;20113;-88
2022/07/14 07:02:06;;;;;;;1.17;1.00;;;;;;;28.36;33.32;100059.03;4994431;28;20030;-87
2022/07/14 07:04:32;;;;;;;3.80;1.95;;;;;;;28.77;33.88;100031.25;5011462;28;20476;-85
2022/07/14 07:06:57;;;;;;;2.13;1.23;;;;;;;29.46;30.95;100046.97;5011454;28;20485;-88
2022/07/14 07:09:23;;;;;;;1.80;0.82;;;;;;;29.51;29.21;100043.84;5011515;28;20109;-89
2022/07/14 07:11:51;;;;;;;1.95;1.23;;;;;;;29.22;30.00;100023.69;5011286;28;20037;-85
2022/07/14 07:14:18;;;;;;;2.45;1.23;;;;;;;29.29;29.64;100033.03;5011841;28;20026;-85
2022/07/14 07:16:48;;;;;;;2.03;1.85;;;;;;;29.64;29.21;100041.72;5011977;28;20080;-87
2022/07/14 07:19:15;;;;;;;1.65;0.90;;;;;;;29.76;30.04;100054.22;5011948;28;20116;-88
2022/07/14 07:21:41;;;;;;;3.40;1.20;;;;;;;29.82;29.94;100021.06;5011621;28;20036;-87
2022/07/14 07:24:07;;;;;;;2.03;1.08;;;;;;;29.92;29.73;100025.66;5011370;28;20116;-86
2022/07/14 07:26:34;;;;;;;2.63;0.85;;;;;;;30.15;28.14;100016.28;5011299;28;20029;-86
2022/07/14 07:29:00;;;;;;;2.05;1.17;;;;;;;30.17;29.73;100022.44;5011448;28;20068;-87
2022/07/14 07:31:26;;;;;;;1.55;0.88;;;;;;;30.69;28.17;100024.91;5011376;28;20030;-87
2022/07/14 07:33:53;;;;;;;0.50;0.50;;;;;;;30.40;26.13;100026.75;4993369;28;20042;-87
2022/07/14 07:36:19;;;;;;;2.25;0.77;;;;;;;29.63;27.61;100045.47;4993834;28;20460;-88
2022/07/14 07:38:45;;;;;;;1.05;0.60;;;;;;;29.82;30.22;100003.91;5011025;28;20026;-88
2022/07/14 07:41:10;;;;;;;9.95;1.40;;;;;;;30.47;27.90;100015.16;5011322;28;20088;-86
2022/07/14 07:43:36;;;;;;;0.65;0.52;;;;;;;30.74;27.68;100005.41;5011330;28;20116;-86
2022/07/14 07:46:03;;;;;;;0.63;0.20;;;;;;;30.26;27.59;100019.84;5011280;28;20476;-86
2022/07/14 07:48:29;;;;;;;1.00;0.63;;;;;;;30.13;27.45;99985.63;5010648;28;20029;-86
2022/07/14 07:50:55;;;;;;;1.92;0.65;;;;;;;30.48;25.49;100010.59;5011164;28;20122;-86
2022/07/14 07:53:21;;;;;;;0.52;0.43;;;;;;;30.12;24.24;100002.97;5011068;28;20495;-86
2022/07/14 07:55:47;;;;;;;1.55;0.65;;;;;;;30.51;28.09;100002.16;5010865;28;20030;-87
2022/07/14 07:58:12;;;;;;;0.80;0.50;;;;;;;30.24;27.62;99998.22;5011337;28;20416;-86
2022/07/14 08:00:38;;;;;;;0.73;0.50;;;;;;;31.09;27.45;100012.06;5011126;28;20389;-87
2022/07/14 08:03:04;;;;;;;0.45;0.45;;;;;;;30.77;26.75;100002.41;5010929;28;20403;-86
2022/07/14 08:05:31;;;;;;;0.82;0.63;;;;;;;31.38;25.30;99994.78;5014547;28;20033;-86
2022/07/14 08:07:57;;;;;;;0.70;0.40;;;;;;;31.01;25.15;99987.47;5014701;28;20030;-86
2022/07/14 08:10:23;;;;;;;0.60;0.45;;;;;;;31.04;24.96;100000.78;5015262;28;20596;-86
2022/07/14 08:12:49;;;;;;;1.38;0.70;;;;;;;31.68;25.14;100003.69;5014750;28;20029;-86
2022/07/14 08:15:15;;;;;;;0.63;0.63;;;;;;;31.06;26.83;100009.66;5014591;28;20033;-87
2022/07/14 08:17:40;;;;;;;0.45;0.45;;;;;;;31.17;26.45;100017.66;5015091;28;20034;-87
2022/07/14 08:20:08;;;;;;;1.10;0.60;;;;;;;31.28;26.84;99989.38;5014745;28;20688;-87
2022/07/14 08:22:34;;;;;;;0.75;0.63;;;;;;;32.01;26.49;100013.09;5014399;28;20092;-87
2022/07/14 08:25:01;;;;;;;2.60;0.85;;;;;;;31.90;22.35;99986.91;5014897;28;20030;-86
2022/07/14 08:27:27;;;;;;;1.08;0.57;;;;;;;31.95;26.60;100011.84;5014703;28;20036;-87
2022/07/14 08:29:53;;;;;;;0.47;0.40;;;;;;;31.89;26.11;99992.50;5014530;28;20030;-87
2022/07/14 08:32:42;;;;;;;1.85;0.82;;;;;;;32.13;26.29;100017.34;5014171;28;20034;-87
2022/07/14 08:35:11;;;;;;;0.40;0.40;;;;;;;32.45;26.65;99994.09;5014411;28;20512;-87
2022/07/14 08:37:37;;;;;;;0.70;0.35;;;;;;;32.20;24.10;99990.28;5014694;28;20026;-87
2022/07/14 08:40:06;;;;;;;0.60;0.45;;;;;;;32.48;23.73;100001.13;5014205;28;20037;-86
2022/07/14 08:42:32;;;;;;;1.15;1.05;;;;;;;32.09;23.03;99987.78;4996603;28;20033;-87
2022/07/14 08:44:59;;;;;;;0.43;0.43;;;;;;;32.90;22.70;99984.06;4996340;28;20045;-86
2022/07/14 08:47:25;;;;;;;0.98;0.50;;;;;;;32.88;22.67;99980.63;5014163;28;20026;-85
2022/07/14 08:49:51;;;;;;;0.40;0.40;;;;;;;33.10;22.21;99995.63;5014471;28;20061;-87
2022/07/14 08:52:17;;;;;;;0.70;0.47;;;;;;;32.86;22.39;99999.06;5014082;28;20061;-88
2022/07/14 08:54:45;;;;;;;0.60;0.40;;;;;;;32.81;25.24;99982.28;5013974;28;20455;-87
2022/07/14 08:57:11;;;;;;;3.88;1.48;;;;;;;33.17;22.02;99974.81;5014106;28;20034;-87
2022/07/14 08:59:38;;;;;;;0.77;0.73;;;;;;;33.58;22.78;99982.38;4995667;28;20045;-86
2022/07/14 09:02:03;;;;;;;2.40;1.08;;;;;;;34.27;20.21;99981.41;5013802;28;20030;-86
2022/07/14 09:04:29;;;;;;;2.10;1.20;;;;;;;33.67;21.17;99948.56;5014148;28;20404;-86
2022/07/14 09:06:55;;;;;;;1.75;0.80;;;;;;;33.86;23.33;99957.53;5013723;28;20451;-87
2022/07/14 09:09:22;;;;;;;0.65;0.60;;;;;;;33.78;21.28;99977.50;5014019;28;20029;-91
2022/07/14 09:12:00;;;;;;;0.98;0.52;;;;;;;33.90;21.01;99969.84;5014003;28;20030;-87
2022/07/14 09:14:27;;;;;;;0.50;0.50;;;;;;;34.41;21.33;99954.19;5013633;28;20030;-85
2022/07/14 09:17:13;;;;;;;0.20;0.15;;;;;;;35.05;19.32;99950.69;5013135;28;20045;-85
2022/07/14 09:20:07;;;;;;;1.88;0.60;;;;;;;34.27;22.63;99932.13;5013785;28;20029;-86
2022/07/14 09:22:36;;;;;;;20.98;9.02;;;;;;;34.41;21.53;99939.66;5013767;28;20025;-86
2022/07/14 09:25:04;;;;;;;8.60;3.85;;;;;;;34.84;20.66;99951.25;5013413;28;20060;-86
2022/07/14 09:27:30;;;;;;;3.22;2.55;;;;;;;34.77;20.27;99945.63;5013783;28;20408;-85
2022/07/14 09:29:56;;;;;;;16.20;8.23;;;;;;;33.51;24.16;99905.63;5013490;28;20022;-85
2022/07/14 09:32:45;;;;;;;3.38;1.63;;;;;;;33.44;21.67;99953.78;5012988;28;20489;-86
2022/07/14 09:35:12;;;;;;;10.90;5.35;;;;;;;33.21;24.83;99928.06;5013286;28;20079;-85
2022/07/14 09:37:38;;;;;;;4.93;2.35;;;;;;;32.88;22.30;99931.47;5013173;28;20065;-85
2022/07/14 09:40:06;;;;;;;0.68;0.43;;;;;;;32.72;20.22;99943.16;5013445;28;20460;-84
2022/07/14 09:43:00;;;;;;;4.13;1.50;;;;;;;33.27;22.92;99952.88;5013153;28;20026;-83
2022/07/14 09:45:30;;;;;;;2.92;0.85;;;;;;;33.51;21.50;99927.50;5013438;28;20117;-85
2022/07/14 09:48:09;;;;;;;0.50;0.50;;;;;;;34.18;21.39;99937.56;5013106;28;20493;-85
2022/07/14 09:50:34;;;;;;;0.90;0.73;;;;;;;33.85;24.49;99944.88;5013087;28;20030;-86
2022/07/14 09:53:15;;;;;;;1.85;0.70;;;;;;;34.12;20.49;99934.66;4995713;28;20041;-87
2022/07/14 09:56:09;;;;;;;0.73;0.50;;;;;;;34.11;22.42;99939.28;4995288;28;20030;-85
2022/07/14 09:58:54;;;;;;;0.85;0.73;;;;;;;33.97;22.65;99931.72;5012357;28;20041;-88
2022/07/14 10:01:20;;;;;;;1.17;0.80;;;;;;;34.16;20.83;99901.31;5013069;28;20038;-86
2022/07/14 10:03:49;;;;;;;0.50;0.50;;;;;;;34.00;20.46;99909.50;4994793;28;20041;-86
2022/07/14 10:06:15;;;;;;;1.38;1.02;;;;;;;34.32;19.84;99916.03;5012325;28;20411;-86
2022/07/14 10:08:43;;;;;;;0.95;0.55;;;;;;;33.64;20.73;99915.22;5011898;28;20022;-85
2022/07/14 10:11:10;;;;;;;1.67;1.20;;;;;;;34.09;21.76;99911.22;5012033;28;20415;-87
2022/07/14 10:13:37;;;;;;;1.27;0.85;;;;;;;33.54;21.60;99897.09;5012023;28;20022;-86
2022/07/14 10:16:03;;;;;;;4.22;1.15;;;;;;;33.57;21.59;99917.78;5012200;28;20420;-86
2022/07/14 10:18:28;;;;;;;0.75;0.47;;;;;;;33.97;19.78;99916.19;5012441;28;20030;-86
2022/07/14 10:20:57;;;;;;;0.50;0.50;;;;;;;34.02;21.11;99880.94;5012673;28;20029;-85
2022/07/14 10:23:23;;;;;;;1.15;0.52;;;;;;;33.86;22.18;99875.47;5012095;28;20061;-82
2022/07/14 10:25:53;;;;;;;0.82;0.40;;;;;;;34.36;19.50;99898.25;5012084;28;20492;-83
2022/07/14 10:28:19;;;;;;;1.98;0.55;;;;;;;34.28;20.78;99893.66;5011431;28;20038;-83
2022/07/14 10:31:27;;;;;;;0.98;0.35;;;;;;;34.34;19.59;99900.28;5012207;28;20030;-83
2022/07/14 10:34:01;;;;;;;0.30;0.28;;;;;;;34.26;20.60;99903.88;5012214;28;20077;-84
2022/07/14 10:36:39;;;;;;;0.50;0.50;;;;;;;34.58;22.86;99905.72;5012344;28;20036;-87
2022/07/14 10:39:16;;;;;;;1.02;0.88;;;;;;;34.22;21.76;99899.78;5012554;28;20420;-87
2022/07/14 10:41:42;;;;;;;0.80;0.47;;;;;;;34.04;22.05;99900.78;4994377;28;20036;-82
2022/07/14 10:44:18;;;;;;;0.52;0.43;;;;;;;34.16;21.46;99889.50;5011784;28;20485;-83
2022/07/14 10:46:46;;;;;;;1.50;0.68;;;;;;;34.40;21.29;99862.16;5012254;28;20034;-84
2022/07/14 10:49:15;;;;;;;2.53;0.80;;;;;;;34.03;19.97;99877.19;4994228;28;20456;-86
2022/07/14 10:51:48;;;;;;;0.30;0.22;;;;;;;33.74;21.48;99869.47;5011978;28;20111;-86
2022/07/14 10:54:24;;;;;;;1.27;0.93;;;;;;;33.30;21.16;99889.66;5011493;28;20037;-86
2022/07/14 10:57:07;;;;;;;0.40;0.32;;;;;;;33.42;20.97;99872.97;5011404;28;20033;-83
2022/07/14 10:59:35;;;;;;;0.60;0.40;;;;;;;33.68;20.73;99849.09;4993274;28;20432;-84
2022/07/14 11:02:21;;;;;;;1.10;0.73;;;;;;;33.89;21.98;99875.13;5011379;28;20439;-84
2022/07/14 11:04:59;;;;;;;3.95;0.93;;;;;;;33.81;20.64;99888.81;5001412;28;20038;-84
2022/07/14 11:07:58;;;;;;;0.65;0.50;;;;;;;34.34;21.30;99883.88;4994327;28;20053;-83
2022/07/14 11:10:24;;;;;;;8.18;0.88;;;;;;;34.54;20.56;99877.00;5012057;28;20030;-84
2022/07/14 11:12:59;;;;;;;1.05;0.70;;;;;;;34.90;21.75;99868.38;5011444;28;20124;-86
2022/07/14 11:15:44;;;;;;;0.55;0.35;;;;;;;34.37;21.69;99845.19;5011751;28;20034;-82
2022/07/14 11:18:18;;;;;;;0.93;0.43;;;;;;;34.99;22.18;99871.94;5011567;28;20036;-83
2022/07/14 11:21:06;;;;;;;0.47;0.38;;;;;;;34.97;19.89;99865.75;5011654;28;20087;-83
2022/07/14 11:23:48;;;;;;;0.73;0.40;;;;;;;35.36;20.39;99864.06;5011560;28;20026;-85
2022/07/14 11:26:32;;;;;;;0.32;0.32;;;;;;;34.66;20.38;99860.19;5011414;28;20045;-84
2022/07/14 11:28:59;;;;;;;0.40;0.30;;;;;;;35.02;22.86;99863.38;5011538;28;20421;-83
2022/07/14 11:31:25;;;;;;;0.63;0.45;;;;;;;35.07;20.31;99852.72;5011174;28;20036;-83
2022/07/14 11:36:38;;;;;;;0.57;0.50;;;;;;;34.53;20.27;99844.31;5011487;28;20100;-82
2022/07/14 11:39:15;;;;;;;0.38;0.38;;;;;;;34.85;21.00;99837.03;5010666;28;20057;-83